Eurika — LYRZ — position and weather

sailwx.info

Track history (hours):
 
Tides and Currents Weather Stations Pressure Air Temp Water Temp Dewpoint Dewpoint Depression Visibility Wind Speed Wind Dir Waves Ship Positions

Eurika

Last reported at 2014-Aug-11 06:29 UTC. Time now 2014-Aug-22 23:38 UTC.
Position N 42°44' E 006°08'.
Warning: this ship's position is 11 days out of date.

Length 79 m; draft 3.2 m.

MMSI: 277335000.

Date/timePositionNaut miles runAvg speedWind from/ knotsBaromVisibWave heightAir tempDewpointWater temp
2014-Aug-11 06:29N 42°44' E 006°08'7 7.2
2014-Aug-11 05:33N 42°47' E 005°60'7 6.8
2014-Aug-11 04:33N 42°51' E 005°52'7 6.8
2014-Aug-11 03:33N 42°55' E 005°45'7 7.0
2014-Aug-11 02:33N 42°59' E 005°37'24 7.3
2014-Aug-10 23:18N 43°12' E 005°09'6 8.0
2014-Aug-10 22:33N 43°16' E 005°03'8 7.6
2014-Aug-10 21:34N 43°22' E 004°57'6 5.9
2014-Aug-10 20:33N 43°23' E 004°49'0 0.4
2014-Aug-10 19:33N 43°23' E 004°49'5 5.2
2014-Aug-10 18:32N 43°27' E 004°45'  
2014-Aug-03 07:33N 43°23' E 004°52'6 6.3
2014-Aug-03 06:33N 43°20' E 004°59'8 7.5
2014-Aug-03 05:27N 43°12' E 005°03'14 7.0
2014-Aug-03 03:28N 43°01' E 004°52'11 7.9
2014-Aug-03 02:04N 42°52' E 004°42'5 7.5
2014-Aug-03 01:25N 42°49' E 004°38'7 7.9
2014-Aug-03 00:33N 42°45' E 004°30'9 7.8
2014-Aug-02 23:26N 42°38' E 004°22'7 7.8
2014-Aug-02 22:34N 42°33' E 004°16'10 7.6
2014-Aug-02 21:13N 42°26' E 004°06'5 7.7
2014-Aug-02 20:33N 42°22' E 004°02'7 7.4
2014-Aug-02 19:33N 42°17' E 003°55'9 7.5
2014-Aug-02 18:19N 42°10' E 003°46'13 7.6
2014-Aug-02 16:33N 41°60' E 003°34'11 8.4
2014-Aug-02 15:18N 41°53' E 003°23'47 8.2
2014-Aug-02 09:32N 41°22' E 002°36'32 7.9
2014-Aug-02 05:26N 41°01' E 002°04'9 7.4
2014-Aug-02 04:10N 40°54' E 001°55'5 7.7
2014-Aug-02 03:29N 40°51' E 001°50'42 8.0
2014-Aug-01 22:15N 40°24' E 001°07'  
Track history (hours):
 
Tides and Currents Weather Stations Pressure Air Temp Water Temp Dewpoint Dewpoint Depression Visibility Wind Speed Wind Dir Waves Ship Positions

Eurika

Last reported at 2014-Aug-11 06:29 UTC. Time now 2014-Aug-22 23:38 UTC.
Position N 42°44' E 006°08'.
Warning: this ship's position is 11 days out of date.

Length 79 m; draft 3.2 m.

MMSI: 277335000.

Date/timePositionNaut miles runAvg speedWind from/ knotsBaromVisibWave heightAir tempDewpointWater temp
2014-Aug-11 06:29N 42°44' E 006°08'7 7.2
2014-Aug-11 05:33N 42°47' E 005°60'7 6.8
2014-Aug-11 04:33N 42°51' E 005°52'7 6.8
2014-Aug-11 03:33N 42°55' E 005°45'7 7.0
2014-Aug-11 02:33N 42°59' E 005°37'24 7.3
2014-Aug-10 23:18N 43°12' E 005°09'6 8.0
2014-Aug-10 22:33N 43°16' E 005°03'8 7.6
2014-Aug-10 21:34N 43°22' E 004°57'6 5.9
2014-Aug-10 20:33N 43°23' E 004°49'0 0.4
2014-Aug-10 19:33N 43°23' E 004°49'5 5.2
2014-Aug-10 18:32N 43°27' E 004°45'  
2014-Aug-03 07:33N 43°23' E 004°52'6 6.3
2014-Aug-03 06:33N 43°20' E 004°59'8 7.5
2014-Aug-03 05:27N 43°12' E 005°03'14 7.0
2014-Aug-03 03:28N 43°01' E 004°52'11 7.9
2014-Aug-03 02:04N 42°52' E 004°42'5 7.5
2014-Aug-03 01:25N 42°49' E 004°38'7 7.9
2014-Aug-03 00:33N 42°45' E 004°30'9 7.8
2014-Aug-02 23:26N 42°38' E 004°22'7 7.8
2014-Aug-02 22:34N 42°33' E 004°16'10 7.6
2014-Aug-02 21:13N 42°26' E 004°06'5 7.7
2014-Aug-02 20:33N 42°22' E 004°02'7 7.4
2014-Aug-02 19:33N 42°17' E 003°55'9 7.5
2014-Aug-02 18:19N 42°10' E 003°46'13 7.6
2014-Aug-02 16:33N 41°60' E 003°34'11 8.4
2014-Aug-02 15:18N 41°53' E 003°23'47 8.2
2014-Aug-02 09:32N 41°22' E 002°36'32 7.9
2014-Aug-02 05:26N 41°01' E 002°04'9 7.4
2014-Aug-02 04:10N 40°54' E 001°55'5 7.7
2014-Aug-02 03:29N 40°51' E 001°50'42 8.0
2014-Aug-01 22:15N 40°24' E 001°07'  

Dump ship's entire track history